sensor_id;sensor_type;location;lat;lon;timestamp;P1;durP1;ratioP1;P2;durP2;ratioP2
72926;SDS011;61071;51.618;19.388;2022-07-21T00:01:49;8.32;;;4.97;;
72926;SDS011;61071;51.618;19.388;2022-07-21T00:04:18;11.73;;;5.53;;
72926;SDS011;61071;51.618;19.388;2022-07-21T00:06:44;10.57;;;5.72;;
72926;SDS011;61071;51.618;19.388;2022-07-21T00:09:11;6.53;;;4.57;;
72926;SDS011;61071;51.618;19.388;2022-07-21T00:11:39;8.35;;;4.88;;
72926;SDS011;61071;51.618;19.388;2022-07-21T00:14:06;8.10;;;5.00;;
72926;SDS011;61071;51.618;19.388;2022-07-21T00:16:35;9.55;;;5.10;;
72926;SDS011;61071;51.618;19.388;2022-07-21T00:19:01;8.48;;;4.50;;
72926;SDS011;61071;51.618;19.388;2022-07-21T00:21:28;7.85;;;5.25;;
72926;SDS011;61071;51.618;19.388;2022-07-21T00:23:54;11.23;;;5.28;;
72926;SDS011;61071;51.618;19.388;2022-07-21T00:26:20;11.00;;;5.28;;
72926;SDS011;61071;51.618;19.388;2022-07-21T00:28:47;7.93;;;4.70;;
72926;SDS011;61071;51.618;19.388;2022-07-21T00:31:13;8.60;;;5.25;;
72926;SDS011;61071;51.618;19.388;2022-07-21T00:33:39;12.73;;;5.53;;
72926;SDS011;61071;51.618;19.388;2022-07-21T00:36:05;7.25;;;5.45;;
72926;SDS011;61071;51.618;19.388;2022-07-21T00:38:31;8.82;;;5.43;;
72926;SDS011;61071;51.618;19.388;2022-07-21T00:40:57;9.30;;;5.60;;
72926;SDS011;61071;51.618;19.388;2022-07-21T00:43:23;8.95;;;5.50;;
72926;SDS011;61071;51.618;19.388;2022-07-21T00:45:51;9.32;;;5.60;;
72926;SDS011;61071;51.618;19.388;2022-07-21T00:48:19;7.38;;;5.43;;
72926;SDS011;61071;51.618;19.388;2022-07-21T00:50:44;10.88;;;6.15;;
72926;SDS011;61071;51.618;19.388;2022-07-21T00:53:10;12.23;;;6.13;;
72926;SDS011;61071;51.618;19.388;2022-07-21T00:55:36;14.57;;;6.13;;
72926;SDS011;61071;51.618;19.388;2022-07-21T00:58:03;11.57;;;5.45;;
72926;SDS011;61071;51.618;19.388;2022-07-21T01:00:29;10.13;;;5.60;;
72926;SDS011;61071;51.618;19.388;2022-07-21T01:02:56;8.13;;;5.00;;
72926;SDS011;61071;51.618;19.388;2022-07-21T01:05:23;9.60;;;5.45;;
72926;SDS011;61071;51.618;19.388;2022-07-21T01:07:52;9.98;;;5.82;;
72926;SDS011;61071;51.618;19.388;2022-07-21T01:10:22;9.77;;;6.18;;
72926;SDS011;61071;51.618;19.388;2022-07-21T01:12:50;9.50;;;5.43;;
72926;SDS011;61071;51.618;19.388;2022-07-21T01:15:16;8.30;;;5.95;;
72926;SDS011;61071;51.618;19.388;2022-07-21T01:17:44;9.57;;;5.82;;
72926;SDS011;61071;51.618;19.388;2022-07-21T01:20:12;11.90;;;5.70;;
72926;SDS011;61071;51.618;19.388;2022-07-21T01:22:42;10.10;;;6.07;;
72926;SDS011;61071;51.618;19.388;2022-07-21T01:25:10;12.05;;;6.22;;
72926;SDS011;61071;51.618;19.388;2022-07-21T01:27:36;8.65;;;5.82;;
72926;SDS011;61071;51.618;19.388;2022-07-21T01:30:04;9.77;;;5.68;;
72926;SDS011;61071;51.618;19.388;2022-07-21T01:32:34;11.38;;;6.03;;
72926;SDS011;61071;51.618;19.388;2022-07-21T01:35:04;9.90;;;6.30;;
72926;SDS011;61071;51.618;19.388;2022-07-21T01:37:34;12.88;;;6.82;;
72926;SDS011;61071;51.618;19.388;2022-07-21T01:40:03;8.10;;;5.78;;
72926;SDS011;61071;51.618;19.388;2022-07-21T01:42:50;9.05;;;5.60;;
72926;SDS011;61071;51.618;19.388;2022-07-21T01:45:18;10.48;;;6.30;;
72926;SDS011;61071;51.618;19.388;2022-07-21T01:47:44;10.52;;;5.75;;
72926;SDS011;61071;51.618;19.388;2022-07-21T01:50:10;10.50;;;6.03;;
72926;SDS011;61071;51.618;19.388;2022-07-21T01:52:36;10.18;;;5.90;;
72926;SDS011;61071;51.618;19.388;2022-07-21T01:55:02;10.85;;;6.40;;
72926;SDS011;61071;51.618;19.388;2022-07-21T01:57:28;9.23;;;5.95;;
72926;SDS011;61071;51.618;19.388;2022-07-21T01:59:54;11.95;;;6.15;;
72926;SDS011;61071;51.618;19.388;2022-07-21T02:02:20;10.38;;;5.93;;
72926;SDS011;61071;51.618;19.388;2022-07-21T02:04:47;9.60;;;6.25;;
72926;SDS011;61071;51.618;19.388;2022-07-21T02:07:13;7.90;;;6.30;;
72926;SDS011;61071;51.618;19.388;2022-07-21T02:09:40;11.88;;;5.93;;
72926;SDS011;61071;51.618;19.388;2022-07-21T02:12:06;10.55;;;6.65;;
72926;SDS011;61071;51.618;19.388;2022-07-21T02:14:32;9.38;;;6.13;;
72926;SDS011;61071;51.618;19.388;2022-07-21T02:16:59;10.05;;;6.05;;
72926;SDS011;61071;51.618;19.388;2022-07-21T02:19:25;11.30;;;6.38;;
72926;SDS011;61071;51.618;19.388;2022-07-21T02:21:51;10.60;;;6.57;;
72926;SDS011;61071;51.618;19.388;2022-07-21T02:24:17;15.32;;;6.65;;
72926;SDS011;61071;51.618;19.388;2022-07-21T02:26:42;10.07;;;5.65;;
72926;SDS011;61071;51.618;19.388;2022-07-21T02:29:08;10.30;;;6.63;;
72926;SDS011;61071;51.618;19.388;2022-07-21T02:31:34;11.70;;;6.07;;
72926;SDS011;61071;51.618;19.388;2022-07-21T02:34:00;14.98;;;7.00;;
72926;SDS011;61071;51.618;19.388;2022-07-21T02:36:26;11.05;;;6.65;;
72926;SDS011;61071;51.618;19.388;2022-07-21T02:38:52;10.88;;;6.53;;
72926;SDS011;61071;51.618;19.388;2022-07-21T02:41:17;10.27;;;6.25;;
72926;SDS011;61071;51.618;19.388;2022-07-21T02:43:43;11.23;;;6.53;;
72926;SDS011;61071;51.618;19.388;2022-07-21T02:46:09;13.20;;;6.57;;
72926;SDS011;61071;51.618;19.388;2022-07-21T02:48:35;11.73;;;6.93;;
72926;SDS011;61071;51.618;19.388;2022-07-21T02:51:00;12.02;;;5.80;;
72926;SDS011;61071;51.618;19.388;2022-07-21T02:53:26;11.57;;;7.07;;
72926;SDS011;61071;51.618;19.388;2022-07-21T02:55:52;10.57;;;6.63;;
72926;SDS011;61071;51.618;19.388;2022-07-21T02:58:19;10.98;;;6.45;;
72926;SDS011;61071;51.618;19.388;2022-07-21T03:00:49;12.73;;;6.45;;
72926;SDS011;61071;51.618;19.388;2022-07-21T03:03:18;11.82;;;6.20;;
72926;SDS011;61071;51.618;19.388;2022-07-21T03:05:46;11.50;;;6.70;;
72926;SDS011;61071;51.618;19.388;2022-07-21T03:08:13;12.52;;;6.28;;
72926;SDS011;61071;51.618;19.388;2022-07-21T03:10:39;9.48;;;5.75;;
72926;SDS011;61071;51.618;19.388;2022-07-21T03:13:06;9.70;;;6.43;;
72926;SDS011;61071;51.618;19.388;2022-07-21T03:15:32;8.65;;;6.32;;
72926;SDS011;61071;51.618;19.388;2022-07-21T03:17:58;20.83;;;7.15;;
72926;SDS011;61071;51.618;19.388;2022-07-21T03:20:29;9.85;;;5.68;;
72926;SDS011;61071;51.618;19.388;2022-07-21T03:22:57;8.25;;;5.95;;
72926;SDS011;61071;51.618;19.388;2022-07-21T03:25:24;9.68;;;5.68;;
72926;SDS011;61071;51.618;19.388;2022-07-21T03:27:50;11.52;;;5.70;;
72926;SDS011;61071;51.618;19.388;2022-07-21T03:30:17;10.30;;;5.93;;
72926;SDS011;61071;51.618;19.388;2022-07-21T03:32:44;10.07;;;5.47;;
72926;SDS011;61071;51.618;19.388;2022-07-21T03:35:11;9.85;;;5.68;;
72926;SDS011;61071;51.618;19.388;2022-07-21T03:37:45;9.50;;;5.05;;
72926;SDS011;61071;51.618;19.388;2022-07-21T03:40:16;14.57;;;6.28;;
72926;SDS011;61071;51.618;19.388;2022-07-21T03:42:45;7.57;;;4.85;;
72926;SDS011;61071;51.618;19.388;2022-07-21T03:45:11;10.77;;;5.50;;
72926;SDS011;61071;51.618;19.388;2022-07-21T03:47:37;8.85;;;5.55;;
72926;SDS011;61071;51.618;19.388;2022-07-21T03:50:03;8.73;;;5.32;;
72926;SDS011;61071;51.618;19.388;2022-07-21T03:52:31;10.25;;;4.65;;
72926;SDS011;61071;51.618;19.388;2022-07-21T03:54:57;10.85;;;5.25;;
72926;SDS011;61071;51.618;19.388;2022-07-21T03:57:56;9.90;;;5.45;;
72926;SDS011;61071;51.618;19.388;2022-07-21T04:02:56;10.07;;;4.95;;
72926;SDS011;61071;51.618;19.388;2022-07-21T04:05:23;7.82;;;4.95;;
72926;SDS011;61071;51.618;19.388;2022-07-21T04:07:50;12.55;;;4.70;;
72926;SDS011;61071;51.618;19.388;2022-07-21T04:10:19;7.80;;;4.80;;
72926;SDS011;61071;51.618;19.388;2022-07-21T04:12:49;10.52;;;4.97;;
72926;SDS011;61071;51.618;19.388;2022-07-21T04:15:16;9.52;;;4.43;;
72926;SDS011;61071;51.618;19.388;2022-07-21T04:17:43;9.52;;;5.22;;
72926;SDS011;61071;51.618;19.388;2022-07-21T04:20:09;12.68;;;4.97;;
72926;SDS011;61071;51.618;19.388;2022-07-21T04:22:38;10.23;;;4.75;;
72926;SDS011;61071;51.618;19.388;2022-07-21T04:25:04;10.73;;;5.10;;
72926;SDS011;61071;51.618;19.388;2022-07-21T04:27:32;8.55;;;4.40;;
72926;SDS011;61071;51.618;19.388;2022-07-21T04:29:59;6.82;;;3.95;;
72926;SDS011;61071;51.618;19.388;2022-07-21T04:32:26;6.18;;;4.13;;
72926;SDS011;61071;51.618;19.388;2022-07-21T04:34:51;9.90;;;4.32;;
72926;SDS011;61071;51.618;19.388;2022-07-21T04:37:17;6.82;;;4.40;;
72926;SDS011;61071;51.618;19.388;2022-07-21T04:39:43;8.52;;;4.43;;
72926;SDS011;61071;51.618;19.388;2022-07-21T04:42:09;10.98;;;4.60;;
72926;SDS011;61071;51.618;19.388;2022-07-21T04:44:34;8.60;;;4.20;;
72926;SDS011;61071;51.618;19.388;2022-07-21T04:47:00;8.98;;;4.43;;
72926;SDS011;61071;51.618;19.388;2022-07-21T04:49:26;12.52;;;4.55;;
72926;SDS011;61071;51.618;19.388;2022-07-21T04:51:52;11.82;;;4.38;;
72926;SDS011;61071;51.618;19.388;2022-07-21T04:54:17;9.57;;;4.50;;
72926;SDS011;61071;51.618;19.388;2022-07-21T04:56:43;7.60;;;4.35;;
72926;SDS011;61071;51.618;19.388;2022-07-21T04:59:10;6.80;;;4.43;;
72926;SDS011;61071;51.618;19.388;2022-07-21T05:01:36;8.32;;;4.72;;
72926;SDS011;61071;51.618;19.388;2022-07-21T05:04:03;9.38;;;4.72;;
72926;SDS011;61071;51.618;19.388;2022-07-21T05:06:31;7.13;;;3.95;;
72926;SDS011;61071;51.618;19.388;2022-07-21T05:08:57;9.60;;;4.43;;
72926;SDS011;61071;51.618;19.388;2022-07-21T05:11:23;7.75;;;4.53;;
72926;SDS011;61071;51.618;19.388;2022-07-21T05:13:49;8.18;;;4.35;;
72926;SDS011;61071;51.618;19.388;2022-07-21T05:16:15;7.57;;;4.60;;
72926;SDS011;61071;51.618;19.388;2022-07-21T05:18:42;9.55;;;4.57;;
72926;SDS011;61071;51.618;19.388;2022-07-21T05:21:07;10.30;;;4.20;;
72926;SDS011;61071;51.618;19.388;2022-07-21T05:23:33;9.30;;;4.82;;
72926;SDS011;61071;51.618;19.388;2022-07-21T05:25:59;7.70;;;4.72;;
72926;SDS011;61071;51.618;19.388;2022-07-21T05:28:26;10.23;;;4.40;;
72926;SDS011;61071;51.618;19.388;2022-07-21T05:30:53;10.25;;;4.53;;
72926;SDS011;61071;51.618;19.388;2022-07-21T05:33:19;8.98;;;4.60;;
72926;SDS011;61071;51.618;19.388;2022-07-21T05:35:45;10.05;;;4.88;;
72926;SDS011;61071;51.618;19.388;2022-07-21T05:38:11;7.75;;;4.43;;
72926;SDS011;61071;51.618;19.388;2022-07-21T05:40:38;8.80;;;4.85;;
72926;SDS011;61071;51.618;19.388;2022-07-21T05:43:03;5.40;;;4.00;;
72926;SDS011;61071;51.618;19.388;2022-07-21T05:45:29;9.40;;;4.22;;
72926;SDS011;61071;51.618;19.388;2022-07-21T05:47:55;12.55;;;4.82;;
72926;SDS011;61071;51.618;19.388;2022-07-21T05:50:20;6.90;;;4.03;;
72926;SDS011;61071;51.618;19.388;2022-07-21T05:52:46;5.75;;;4.32;;
72926;SDS011;61071;51.618;19.388;2022-07-21T05:55:12;6.38;;;4.70;;
72926;SDS011;61071;51.618;19.388;2022-07-21T05:57:38;7.82;;;4.55;;
72926;SDS011;61071;51.618;19.388;2022-07-21T06:00:05;9.63;;;4.82;;
72926;SDS011;61071;51.618;19.388;2022-07-21T06:02:32;8.25;;;4.80;;
72926;SDS011;61071;51.618;19.388;2022-07-21T06:04:58;8.93;;;4.40;;
72926;SDS011;61071;51.618;19.388;2022-07-21T06:07:25;7.15;;;4.38;;
72926;SDS011;61071;51.618;19.388;2022-07-21T06:09:52;6.30;;;4.30;;
72926;SDS011;61071;51.618;19.388;2022-07-21T06:12:18;8.27;;;4.95;;
72926;SDS011;61071;51.618;19.388;2022-07-21T06:14:44;6.13;;;3.80;;
72926;SDS011;61071;51.618;19.388;2022-07-21T06:17:09;7.60;;;4.28;;
72926;SDS011;61071;51.618;19.388;2022-07-21T06:19:35;7.88;;;4.60;;
72926;SDS011;61071;51.618;19.388;2022-07-21T06:22:01;6.80;;;4.55;;
72926;SDS011;61071;51.618;19.388;2022-07-21T06:24:30;11.10;;;3.78;;
72926;SDS011;61071;51.618;19.388;2022-07-21T06:26:55;10.35;;;4.65;;
72926;SDS011;61071;51.618;19.388;2022-07-21T06:29:22;7.35;;;3.97;;
72926;SDS011;61071;51.618;19.388;2022-07-21T06:31:48;13.98;;;4.38;;
72926;SDS011;61071;51.618;19.388;2022-07-21T06:34:14;7.50;;;4.47;;
72926;SDS011;61071;51.618;19.388;2022-07-21T06:36:41;6.28;;;4.50;;
72926;SDS011;61071;51.618;19.388;2022-07-21T06:39:07;8.23;;;4.85;;
72926;SDS011;61071;51.618;19.388;2022-07-21T06:41:33;10.60;;;4.80;;
72926;SDS011;61071;51.618;19.388;2022-07-21T06:43:59;10.35;;;4.40;;
72926;SDS011;61071;51.618;19.388;2022-07-21T06:46:29;9.10;;;4.47;;
72926;SDS011;61071;51.618;19.388;2022-07-21T06:48:58;9.98;;;4.75;;
72926;SDS011;61071;51.618;19.388;2022-07-21T06:51:27;6.93;;;4.88;;
72926;SDS011;61071;51.618;19.388;2022-07-21T06:54:14;17.40;;;4.22;;
72926;SDS011;61071;51.618;19.388;2022-07-21T07:04:26;4.90;;;4.00;;
72926;SDS011;61071;51.618;19.388;2022-07-21T07:07:26;6.60;;;4.38;;
72926;SDS011;61071;51.618;19.388;2022-07-21T07:10:18;6.90;;;4.00;;
72926;SDS011;61071;51.618;19.388;2022-07-21T07:12:47;6.93;;;4.20;;
72926;SDS011;61071;51.618;19.388;2022-07-21T07:18:10;7.68;;;4.30;;
72926;SDS011;61071;51.618;19.388;2022-07-21T07:21:14;8.15;;;4.13;;
72926;SDS011;61071;51.618;19.388;2022-07-21T07:23:57;8.38;;;4.32;;
72926;SDS011;61071;51.618;19.388;2022-07-21T07:26:55;7.00;;;4.32;;
72926;SDS011;61071;51.618;19.388;2022-07-21T07:29:24;7.55;;;4.00;;
72926;SDS011;61071;51.618;19.388;2022-07-21T07:31:50;7.07;;;4.20;;
72926;SDS011;61071;51.618;19.388;2022-07-21T07:34:19;7.78;;;4.50;;
72926;SDS011;61071;51.618;19.388;2022-07-21T07:36:44;7.68;;;4.45;;
72926;SDS011;61071;51.618;19.388;2022-07-21T07:39:19;6.78;;;3.95;;
72926;SDS011;61071;51.618;19.388;2022-07-21T07:41:44;5.97;;;4.38;;
72926;SDS011;61071;51.618;19.388;2022-07-21T07:44:10;6.40;;;4.50;;
72926;SDS011;61071;51.618;19.388;2022-07-21T07:46:46;7.20;;;4.60;;
72926;SDS011;61071;51.618;19.388;2022-07-21T07:49:30;11.30;;;4.13;;
72926;SDS011;61071;51.618;19.388;2022-07-21T07:55:21;8.50;;;4.45;;
72926;SDS011;61071;51.618;19.388;2022-07-21T07:57:50;8.30;;;4.07;;
72926;SDS011;61071;51.618;19.388;2022-07-21T08:00:18;7.25;;;4.40;;
72926;SDS011;61071;51.618;19.388;2022-07-21T08:02:45;6.25;;;4.50;;
72926;SDS011;61071;51.618;19.388;2022-07-21T08:05:10;6.05;;;4.28;;
72926;SDS011;61071;51.618;19.388;2022-07-21T08:07:37;7.97;;;4.32;;
72926;SDS011;61071;51.618;19.388;2022-07-21T08:10:10;5.85;;;4.53;;
72926;SDS011;61071;51.618;19.388;2022-07-21T08:12:38;5.55;;;4.15;;
72926;SDS011;61071;51.618;19.388;2022-07-21T08:15:05;9.30;;;4.53;;
72926;SDS011;61071;51.618;19.388;2022-07-21T08:17:32;6.88;;;3.95;;
72926;SDS011;61071;51.618;19.388;2022-07-21T08:19:58;5.28;;;3.88;;
72926;SDS011;61071;51.618;19.388;2022-07-21T08:22:24;8.38;;;4.15;;
72926;SDS011;61071;51.618;19.388;2022-07-21T08:24:50;5.97;;;4.25;;
72926;SDS011;61071;51.618;19.388;2022-07-21T08:27:15;5.95;;;4.13;;
72926;SDS011;61071;51.618;19.388;2022-07-21T08:29:41;8.77;;;3.83;;
72926;SDS011;61071;51.618;19.388;2022-07-21T08:32:07;11.00;;;4.50;;
72926;SDS011;61071;51.618;19.388;2022-07-21T08:34:33;6.90;;;4.22;;
72926;SDS011;61071;51.618;19.388;2022-07-21T08:37:02;8.80;;;4.40;;
72926;SDS011;61071;51.618;19.388;2022-07-21T08:39:30;10.00;;;4.28;;
72926;SDS011;61071;51.618;19.388;2022-07-21T08:42:10;7.55;;;3.95;;
72926;SDS011;61071;51.618;19.388;2022-07-21T08:44:37;7.82;;;4.32;;
72926;SDS011;61071;51.618;19.388;2022-07-21T08:47:25;11.20;;;4.13;;
72926;SDS011;61071;51.618;19.388;2022-07-21T08:49:54;8.45;;;3.95;;
72926;SDS011;61071;51.618;19.388;2022-07-21T08:52:50;6.35;;;4.13;;
72926;SDS011;61071;51.618;19.388;2022-07-21T08:55:24;5.95;;;4.05;;
72926;SDS011;61071;51.618;19.388;2022-07-21T08:58:03;7.18;;;4.10;;
72926;SDS011;61071;51.618;19.388;2022-07-21T09:00:44;8.77;;;4.47;;
72926;SDS011;61071;51.618;19.388;2022-07-21T09:03:28;7.97;;;3.90;;
72926;SDS011;61071;51.618;19.388;2022-07-21T09:06:15;8.32;;;3.67;;
72926;SDS011;61071;51.618;19.388;2022-07-21T09:08:44;6.65;;;3.63;;
72926;SDS011;61071;51.618;19.388;2022-07-21T09:11:20;9.45;;;4.55;;
72926;SDS011;61071;51.618;19.388;2022-07-21T09:14:07;11.65;;;4.63;;
72926;SDS011;61071;51.618;19.388;2022-07-21T09:16:57;11.32;;;4.32;;
72926;SDS011;61071;51.618;19.388;2022-07-21T09:19:29;9.35;;;4.30;;
72926;SDS011;61071;51.618;19.388;2022-07-21T09:22:16;9.13;;;3.78;;
72926;SDS011;61071;51.618;19.388;2022-07-21T09:24:50;11.70;;;3.95;;
72926;SDS011;61071;51.618;19.388;2022-07-21T09:27:27;6.80;;;3.35;;
72926;SDS011;61071;51.618;19.388;2022-07-21T09:29:55;8.10;;;3.78;;
72926;SDS011;61071;51.618;19.388;2022-07-21T09:32:33;10.93;;;3.88;;
72926;SDS011;61071;51.618;19.388;2022-07-21T09:35:07;6.40;;;3.67;;
72926;SDS011;61071;51.618;19.388;2022-07-21T09:37:40;7.38;;;3.67;;
72926;SDS011;61071;51.618;19.388;2022-07-21T09:42:50;7.22;;;3.97;;
72926;SDS011;61071;51.618;19.388;2022-07-21T09:45:19;10.63;;;3.97;;
72926;SDS011;61071;51.618;19.388;2022-07-21T09:47:45;9.15;;;3.30;;
72926;SDS011;61071;51.618;19.388;2022-07-21T09:54:22;5.05;;;3.03;;
72926;SDS011;61071;51.618;19.388;2022-07-21T09:56:47;7.82;;;3.95;;
72926;SDS011;61071;51.618;19.388;2022-07-21T09:59:22;8.30;;;3.55;;
72926;SDS011;61071;51.618;19.388;2022-07-21T10:06:00;6.10;;;3.70;;
72926;SDS011;61071;51.618;19.388;2022-07-21T10:12:26;6.72;;;3.47;;
72926;SDS011;61071;51.618;19.388;2022-07-21T10:14:53;6.25;;;3.10;;
72926;SDS011;61071;51.618;19.388;2022-07-21T10:17:29;7.18;;;3.22;;
72926;SDS011;61071;51.618;19.388;2022-07-21T10:20:28;11.80;;;3.65;;
72926;SDS011;61071;51.618;19.388;2022-07-21T10:23:53;6.35;;;3.50;;
72926;SDS011;61071;51.618;19.388;2022-07-21T10:26:35;6.97;;;3.30;;
72926;SDS011;61071;51.618;19.388;2022-07-21T10:37:42;7.50;;;3.10;;
72926;SDS011;61071;51.618;19.388;2022-07-21T11:01:39;6.45;;;3.38;;
72926;SDS011;61071;51.618;19.388;2022-07-21T11:06:36;10.75;;;3.05;;
72926;SDS011;61071;51.618;19.388;2022-07-21T11:09:08;10.23;;;3.08;;
72926;SDS011;61071;51.618;19.388;2022-07-21T11:14:51;7.90;;;2.97;;
72926;SDS011;61071;51.618;19.388;2022-07-21T11:17:29;7.22;;;3.58;;
72926;SDS011;61071;51.618;19.388;2022-07-21T11:19:56;4.93;;;3.40;;
72926;SDS011;61071;51.618;19.388;2022-07-21T11:22:28;7.32;;;3.25;;
72926;SDS011;61071;51.618;19.388;2022-07-21T11:24:59;5.80;;;3.05;;
72926;SDS011;61071;51.618;19.388;2022-07-21T11:29:59;6.50;;;3.15;;
72926;SDS011;61071;51.618;19.388;2022-07-21T11:32:30;7.15;;;3.20;;
72926;SDS011;61071;51.618;19.388;2022-07-21T11:35:00;7.97;;;3.38;;
72926;SDS011;61071;51.618;19.388;2022-07-21T11:37:50;4.85;;;2.80;;
72926;SDS011;61071;51.618;19.388;2022-07-21T11:40:18;4.30;;;2.92;;
72926;SDS011;61071;51.618;19.388;2022-07-21T11:42:46;8.65;;;3.05;;
72926;SDS011;61071;51.618;19.388;2022-07-21T11:45:16;8.60;;;3.25;;
72926;SDS011;61071;51.618;19.388;2022-07-21T11:47:43;4.40;;;2.63;;
72926;SDS011;61071;51.618;19.388;2022-07-21T11:50:58;5.47;;;3.00;;
72926;SDS011;61071;51.618;19.388;2022-07-21T11:53:50;7.65;;;3.88;;
72926;SDS011;61071;51.618;19.388;2022-07-21T11:59:25;7.60;;;3.40;;
72926;SDS011;61071;51.618;19.388;2022-07-21T12:02:25;5.40;;;3.00;;
72926;SDS011;61071;51.618;19.388;2022-07-21T12:08:23;5.95;;;3.45;;
72926;SDS011;61071;51.618;19.388;2022-07-21T12:10:49;11.73;;;3.28;;
72926;SDS011;61071;51.618;19.388;2022-07-21T12:13:24;8.18;;;3.50;;
72926;SDS011;61071;51.618;19.388;2022-07-21T12:15:50;6.55;;;3.42;;
72926;SDS011;61071;51.618;19.388;2022-07-21T12:21:21;5.10;;;3.30;;
72926;SDS011;61071;51.618;19.388;2022-07-21T12:23:50;6.18;;;3.05;;
72926;SDS011;61071;51.618;19.388;2022-07-21T12:26:32;7.55;;;3.25;;
72926;SDS011;61071;51.618;19.388;2022-07-21T12:28:58;9.15;;;3.42;;
72926;SDS011;61071;51.618;19.388;2022-07-21T12:31:32;14.63;;;3.45;;
72926;SDS011;61071;51.618;19.388;2022-07-21T12:34:13;9.80;;;3.53;;
72926;SDS011;61071;51.618;19.388;2022-07-21T12:39:37;4.63;;;2.85;;
72926;SDS011;61071;51.618;19.388;2022-07-21T12:42:31;9.43;;;3.10;;
72926;SDS011;61071;51.618;19.388;2022-07-21T12:45:00;7.32;;;3.20;;
72926;SDS011;61071;51.618;19.388;2022-07-21T12:47:39;10.50;;;3.47;;
72926;SDS011;61071;51.618;19.388;2022-07-21T12:50:06;8.13;;;3.10;;
72926;SDS011;61071;51.618;19.388;2022-07-21T12:52:39;9.00;;;3.53;;
72926;SDS011;61071;51.618;19.388;2022-07-21T12:55:06;11.85;;;3.83;;
72926;SDS011;61071;51.618;19.388;2022-07-21T12:57:33;7.78;;;2.90;;
72926;SDS011;61071;51.618;19.388;2022-07-21T12:59:59;5.72;;;3.17;;
72926;SDS011;61071;51.618;19.388;2022-07-21T13:02:39;11.63;;;3.78;;
72926;SDS011;61071;51.618;19.388;2022-07-21T13:05:12;11.35;;;3.60;;
72926;SDS011;61071;51.618;19.388;2022-07-21T13:10:18;9.60;;;3.45;;
72926;SDS011;61071;51.618;19.388;2022-07-21T13:12:44;6.65;;;2.88;;
72926;SDS011;61071;51.618;19.388;2022-07-21T13:15:12;9.38;;;3.15;;
72926;SDS011;61071;51.618;19.388;2022-07-21T13:17:39;7.75;;;3.20;;
72926;SDS011;61071;51.618;19.388;2022-07-21T13:20:05;9.65;;;3.35;;
72926;SDS011;61071;51.618;19.388;2022-07-21T13:22:34;6.30;;;3.05;;
72926;SDS011;61071;51.618;19.388;2022-07-21T13:25:00;7.30;;;3.17;;
72926;SDS011;61071;51.618;19.388;2022-07-21T13:27:26;8.02;;;2.92;;
72926;SDS011;61071;51.618;19.388;2022-07-21T13:29:52;13.82;;;3.42;;
72926;SDS011;61071;51.618;19.388;2022-07-21T13:32:18;4.75;;;2.72;;
72926;SDS011;61071;51.618;19.388;2022-07-21T13:34:43;12.40;;;3.30;;
72926;SDS011;61071;51.618;19.388;2022-07-21T13:37:09;7.90;;;2.97;;
72926;SDS011;61071;51.618;19.388;2022-07-21T13:39:39;7.63;;;2.80;;
72926;SDS011;61071;51.618;19.388;2022-07-21T13:42:06;13.35;;;3.08;;
72926;SDS011;61071;51.618;19.388;2022-07-21T13:44:33;10.45;;;3.53;;
72926;SDS011;61071;51.618;19.388;2022-07-21T13:46:59;5.35;;;3.28;;
72926;SDS011;61071;51.618;19.388;2022-07-21T13:49:25;8.57;;;2.85;;
72926;SDS011;61071;51.618;19.388;2022-07-21T13:51:51;9.48;;;3.20;;
72926;SDS011;61071;51.618;19.388;2022-07-21T13:54:17;14.73;;;3.10;;
72926;SDS011;61071;51.618;19.388;2022-07-21T13:56:45;7.90;;;3.35;;
72926;SDS011;61071;51.618;19.388;2022-07-21T13:59:11;8.15;;;3.25;;
72926;SDS011;61071;51.618;19.388;2022-07-21T14:01:37;11.70;;;3.60;;
72926;SDS011;61071;51.618;19.388;2022-07-21T14:04:03;8.43;;;2.88;;
72926;SDS011;61071;51.618;19.388;2022-07-21T14:06:28;10.02;;;3.08;;
72926;SDS011;61071;51.618;19.388;2022-07-21T14:08:57;9.38;;;3.33;;
72926;SDS011;61071;51.618;19.388;2022-07-21T14:11:22;8.00;;;3.00;;
72926;SDS011;61071;51.618;19.388;2022-07-21T14:13:50;7.63;;;3.50;;
72926;SDS011;61071;51.618;19.388;2022-07-21T14:16:38;10.88;;;3.95;;
72926;SDS011;61071;51.618;19.388;2022-07-21T14:19:02;10.10;;;3.40;;
72926;SDS011;61071;51.618;19.388;2022-07-21T14:21:28;6.57;;;3.00;;
72926;SDS011;61071;51.618;19.388;2022-07-21T14:23:54;7.40;;;3.33;;
72926;SDS011;61071;51.618;19.388;2022-07-21T14:26:38;11.70;;;3.45;;
72926;SDS011;61071;51.618;19.388;2022-07-21T14:29:06;11.23;;;3.70;;
72926;SDS011;61071;51.618;19.388;2022-07-21T14:31:32;7.38;;;2.85;;
72926;SDS011;61071;51.618;19.388;2022-07-21T14:33:59;11.77;;;3.35;;
72926;SDS011;61071;51.618;19.388;2022-07-21T14:36:25;7.45;;;3.70;;
72926;SDS011;61071;51.618;19.388;2022-07-21T14:38:50;7.68;;;2.80;;
72926;SDS011;61071;51.618;19.388;2022-07-21T14:41:16;10.20;;;3.22;;
72926;SDS011;61071;51.618;19.388;2022-07-21T14:43:42;10.32;;;3.42;;
72926;SDS011;61071;51.618;19.388;2022-07-21T14:46:08;8.60;;;3.00;;
72926;SDS011;61071;51.618;19.388;2022-07-21T14:48:34;8.93;;;2.92;;
72926;SDS011;61071;51.618;19.388;2022-07-21T14:50:59;8.77;;;3.47;;
72926;SDS011;61071;51.618;19.388;2022-07-21T14:53:25;7.30;;;3.05;;
72926;SDS011;61071;51.618;19.388;2022-07-21T14:55:50;8.13;;;3.35;;
72926;SDS011;61071;51.618;19.388;2022-07-21T14:58:16;8.35;;;3.28;;
72926;SDS011;61071;51.618;19.388;2022-07-21T15:00:42;6.78;;;3.25;;
72926;SDS011;61071;51.618;19.388;2022-07-21T15:03:08;9.98;;;3.42;;
72926;SDS011;61071;51.618;19.388;2022-07-21T15:05:33;17.23;;;3.30;;
72926;SDS011;61071;51.618;19.388;2022-07-21T15:07:59;8.63;;;3.05;;
72926;SDS011;61071;51.618;19.388;2022-07-21T15:10:25;8.07;;;2.70;;
72926;SDS011;61071;51.618;19.388;2022-07-21T15:12:50;8.15;;;3.30;;
72926;SDS011;61071;51.618;19.388;2022-07-21T15:15:16;15.00;;;3.53;;
72926;SDS011;61071;51.618;19.388;2022-07-21T15:17:42;5.82;;;3.00;;
72926;SDS011;61071;51.618;19.388;2022-07-21T15:20:07;6.20;;;2.97;;
72926;SDS011;61071;51.618;19.388;2022-07-21T15:22:34;8.18;;;3.17;;
72926;SDS011;61071;51.618;19.388;2022-07-21T15:25:00;10.00;;;3.30;;
72926;SDS011;61071;51.618;19.388;2022-07-21T15:27:27;8.25;;;3.58;;
72926;SDS011;61071;51.618;19.388;2022-07-21T15:29:53;8.68;;;3.63;;
72926;SDS011;61071;51.618;19.388;2022-07-21T15:32:19;9.05;;;3.05;;
72926;SDS011;61071;51.618;19.388;2022-07-21T15:34:45;9.45;;;3.20;;
72926;SDS011;61071;51.618;19.388;2022-07-21T15:37:11;8.80;;;3.55;;
72926;SDS011;61071;51.618;19.388;2022-07-21T15:39:37;7.25;;;3.40;;
72926;SDS011;61071;51.618;19.388;2022-07-21T15:42:07;9.00;;;2.83;;
72926;SDS011;61071;51.618;19.388;2022-07-21T15:44:37;12.07;;;3.45;;
72926;SDS011;61071;51.618;19.388;2022-07-21T15:47:04;12.63;;;3.35;;
72926;SDS011;61071;51.618;19.388;2022-07-21T15:49:34;6.53;;;3.17;;
72926;SDS011;61071;51.618;19.388;2022-07-21T15:52:01;9.93;;;3.53;;
72926;SDS011;61071;51.618;19.388;2022-07-21T15:54:28;13.65;;;3.95;;
72926;SDS011;61071;51.618;19.388;2022-07-21T16:00:10;7.45;;;3.10;;
72926;SDS011;61071;51.618;19.388;2022-07-21T16:02:43;12.70;;;3.40;;
72926;SDS011;61071;51.618;19.388;2022-07-21T16:05:11;11.88;;;3.17;;
72926;SDS011;61071;51.618;19.388;2022-07-21T16:07:40;9.32;;;3.83;;
72926;SDS011;61071;51.618;19.388;2022-07-21T16:10:16;6.20;;;3.22;;
72926;SDS011;61071;51.618;19.388;2022-07-21T16:12:43;11.40;;;3.13;;